createdAt,value
2023-05-19T00:01:19.246Z,92.98
2023-05-19T00:03:52.731Z,93.48
2023-05-19T00:06:27.748Z,94.10
2023-05-19T00:09:03.872Z,94.16
2023-05-19T00:11:30.953Z,94.37
2023-05-19T00:14:00.218Z,95.53
2023-05-19T00:16:28.771Z,95.64
2023-05-19T00:18:57.206Z,95.60
2023-05-19T00:21:24.345Z,95.65
2023-05-19T00:23:51.172Z,96.31
2023-05-19T00:26:18.788Z,96.51
2023-05-19T00:28:45.567Z,96.38
2023-05-19T00:31:12.328Z,96.97
2023-05-19T00:33:39.192Z,96.77
2023-05-19T00:36:06.437Z,97.68
2023-05-19T00:38:34.850Z,98.13
2023-05-19T00:41:03.123Z,99.31
2023-05-19T00:43:30.437Z,99.50
2023-05-19T00:45:57.694Z,100.00
2023-05-19T00:48:26.158Z,100.00
2023-05-19T00:51:04.508Z,100.00
2023-05-19T00:53:35.488Z,100.00
2023-05-19T00:56:03.444Z,100.00
2023-05-19T00:58:31.382Z,100.00
2023-05-19T01:01:07.803Z,100.00
2023-05-19T01:03:36.182Z,100.00
2023-05-19T01:06:07.230Z,100.00
2023-05-19T01:08:35.820Z,100.00
2023-05-19T01:11:03.918Z,100.00
2023-05-19T01:13:31.575Z,100.00
2023-05-19T01:15:58.387Z,99.98
2023-05-19T01:18:44.488Z,99.92
2023-05-19T01:21:37.283Z,99.11
2023-05-19T01:24:56.089Z,98.16
2023-05-19T01:27:50.878Z,98.42
2023-05-19T01:30:29.246Z,99.28
2023-05-19T01:33:02.498Z,100.00
2023-05-19T01:35:30.921Z,100.00
2023-05-19T01:37:59.338Z,100.00
2023-05-19T01:40:27.629Z,100.00
2023-05-19T01:42:57.846Z,100.00
2023-05-19T01:45:26.343Z,100.00
2023-05-19T01:47:56.123Z,100.00
2023-05-19T01:50:23.529Z,100.00
2023-05-19T01:52:51.261Z,100.00
2023-05-19T01:55:18.232Z,100.00
2023-05-19T01:58:10.715Z,100.00
2023-05-19T02:01:09.108Z,100.00
2023-05-19T02:03:44.648Z,100.00
2023-05-19T02:06:20.114Z,100.00
2023-05-19T02:09:16.815Z,100.00
2023-05-19T02:11:47.315Z,100.00
2023-05-19T02:14:20.581Z,100.00
2023-05-19T02:16:48.813Z,100.00
2023-05-19T02:19:24.321Z,100.00
2023-05-19T02:21:51.323Z,100.00
2023-05-19T02:24:18.708Z,100.00
2023-05-19T02:26:45.765Z,100.00
2023-05-19T02:29:12.570Z,98.50
2023-05-19T02:31:39.345Z,98.45
2023-05-19T02:34:06.227Z,96.94
2023-05-19T02:36:35.218Z,96.86
2023-05-19T02:39:02.431Z,96.30
2023-05-19T02:41:29.589Z,95.87
2023-05-19T02:43:56.455Z,94.32
2023-05-19T02:46:23.324Z,93.80
2023-05-19T02:48:51.336Z,93.08
2023-05-19T02:51:18.106Z,92.90
2023-05-19T02:53:44.907Z,93.16
2023-05-19T02:56:11.773Z,93.38
2023-05-19T02:58:39.517Z,92.64
2023-05-19T03:01:06.302Z,91.46
2023-05-19T03:03:33.174Z,90.96
2023-05-19T03:05:59.996Z,90.97
2023-05-19T03:08:26.789Z,90.32
2023-05-19T03:10:53.630Z,90.65
2023-05-19T03:13:20.468Z,90.94
2023-05-19T03:15:47.607Z,90.16
2023-05-19T03:18:14.401Z,89.83
2023-05-19T03:20:42.469Z,89.67
2023-05-19T03:23:09.583Z,89.18
2023-05-19T03:25:36.743Z,89.30
2023-05-19T03:28:03.526Z,88.21
2023-05-19T03:30:30.762Z,87.92
2023-05-19T03:32:57.772Z,88.28
2023-05-19T03:35:24.580Z,88.39
2023-05-19T03:37:51.409Z,88.27
2023-05-19T03:40:19.036Z,87.79
2023-05-19T03:42:46.544Z,88.13
2023-05-19T03:45:13.326Z,88.31
2023-05-19T03:47:40.203Z,89.00
2023-05-19T03:50:07.450Z,89.39
2023-05-19T03:52:34.203Z,90.07
2023-05-19T03:55:01.085Z,90.58
2023-05-19T03:57:29.577Z,90.77
2023-05-19T03:59:56.346Z,91.02
2023-05-19T04:02:23.163Z,91.50
2023-05-19T04:04:51.226Z,92.44
2023-05-19T04:07:18.185Z,92.75
2023-05-19T04:09:45.622Z,92.45
2023-05-19T04:12:12.390Z,93.08
2023-05-19T04:14:39.166Z,93.87
2023-05-19T04:17:05.958Z,94.22
2023-05-19T04:19:32.767Z,95.04
2023-05-19T04:21:59.584Z,95.30
2023-05-19T04:24:26.357Z,94.96
2023-05-19T04:26:53.690Z,95.57
2023-05-19T04:29:20.646Z,95.33
2023-05-19T04:31:47.568Z,95.51
2023-05-19T04:34:14.280Z,95.87
2023-05-19T04:36:41.740Z,95.21
2023-05-19T04:39:11.573Z,94.86
2023-05-19T04:41:40.580Z,95.69
2023-05-19T04:44:09.066Z,95.87
2023-05-19T04:46:36.258Z,95.10
2023-05-19T04:49:03.168Z,94.84
2023-05-19T04:51:31.432Z,95.25
2023-05-19T04:53:58.460Z,95.45
2023-05-19T04:56:27.392Z,95.29
2023-05-19T04:58:54.282Z,96.10
2023-05-19T05:01:26.009Z,96.30
2023-05-19T05:03:56.202Z,95.40
2023-05-19T05:06:23.062Z,97.40
2023-05-19T05:08:50.009Z,96.59
2023-05-19T05:11:17.727Z,96.67
2023-05-19T05:13:45.190Z,96.60
2023-05-19T05:16:12.687Z,96.02
2023-05-19T05:18:40.844Z,95.79
2023-05-19T05:21:09.545Z,96.22
2023-05-19T05:23:36.662Z,96.94
2023-05-19T05:26:09.906Z,97.71
2023-05-19T05:28:36.700Z,98.83
2023-05-19T05:31:03.482Z,98.99
2023-05-19T05:33:30.488Z,98.90
2023-05-19T05:35:57.428Z,99.02
2023-05-19T05:38:24.259Z,99.22
2023-05-19T05:40:51.019Z,99.66
2023-05-19T05:43:17.850Z,100.00
2023-05-19T05:45:44.736Z,100.00
2023-05-19T05:48:11.870Z,100.00
2023-05-19T05:50:39.043Z,100.00
2023-05-19T05:53:07.344Z,100.00
2023-05-19T05:55:34.672Z,100.00
2023-05-19T05:58:02.405Z,100.00
2023-05-19T06:00:30.010Z,100.00
2023-05-19T06:02:57.384Z,99.32
2023-05-19T06:05:25.211Z,98.88
2023-05-19T06:07:51.959Z,98.73
2023-05-19T06:10:18.784Z,98.34
2023-05-19T06:12:46.573Z,99.21
2023-05-19T06:15:13.520Z,98.83
2023-05-19T06:17:40.303Z,97.73
2023-05-19T06:20:08.859Z,96.95
2023-05-19T06:22:36.030Z,96.91
2023-05-19T06:25:03.639Z,96.50
2023-05-19T06:27:32.640Z,95.15
2023-05-19T06:30:01.525Z,95.83
2023-05-19T06:32:29.869Z,96.48
2023-05-19T06:34:56.964Z,95.80
2023-05-19T06:37:24.126Z,94.58
2023-05-19T06:39:53.764Z,93.67
2023-05-19T06:42:22.698Z,93.25
2023-05-19T06:44:50.455Z,93.53
2023-05-19T06:47:17.796Z,92.81
2023-05-19T06:49:44.970Z,92.28
2023-05-19T06:52:12.404Z,91.62
2023-05-19T06:54:39.394Z,91.81
2023-05-19T06:57:06.495Z,90.75
2023-05-19T06:59:33.394Z,90.11
2023-05-19T07:02:00.337Z,89.53
2023-05-19T07:04:27.457Z,88.96
2023-05-19T07:06:55.064Z,88.32
2023-05-19T07:09:21.976Z,88.19
2023-05-19T07:11:48.882Z,87.39
2023-05-19T07:14:15.804Z,87.22
2023-05-19T07:16:42.641Z,87.17
2023-05-19T07:19:09.485Z,85.98
2023-05-19T07:21:36.508Z,85.83
2023-05-19T07:24:03.301Z,85.43
2023-05-19T07:26:30.189Z,85.48
2023-05-19T07:29:00.231Z,85.36
2023-05-19T07:31:30.109Z,85.46
2023-05-19T07:33:57.486Z,84.76
2023-05-19T07:36:24.348Z,82.70
2023-05-19T07:38:51.173Z,81.55
2023-05-19T07:41:18.022Z,80.34
2023-05-19T07:43:44.821Z,80.95
2023-05-19T07:46:11.624Z,80.76
2023-05-19T07:48:38.457Z,80.42
2023-05-19T07:51:20.703Z,80.00
2023-05-19T07:53:47.520Z,80.23
2023-05-19T07:56:14.424Z,80.37
2023-05-19T07:58:41.210Z,80.54
2023-05-19T08:01:08.083Z,80.62
2023-05-19T08:03:35.197Z,81.23
2023-05-19T08:06:02.302Z,79.94
2023-05-19T08:08:29.068Z,78.18
2023-05-19T08:10:55.970Z,77.35
2023-05-19T08:13:22.720Z,76.49
2023-05-19T08:15:49.517Z,75.54
2023-05-19T08:18:16.528Z,73.42
2023-05-19T08:20:43.313Z,73.93
2023-05-19T08:23:10.116Z,74.41
2023-05-19T08:25:36.943Z,73.49
2023-05-19T08:28:03.836Z,72.72
2023-05-19T08:30:34.461Z,72.38
2023-05-19T08:33:02.389Z,70.05
2023-05-19T08:35:29.246Z,68.26
2023-05-19T08:37:56.404Z,68.04
2023-05-19T08:40:23.650Z,66.33
2023-05-19T08:42:50.684Z,64.01
2023-05-19T08:45:17.834Z,63.32
2023-05-19T08:47:47.382Z,63.56
2023-05-19T08:50:21.381Z,60.52
2023-05-19T08:52:53.814Z,61.91
2023-05-19T08:55:27.809Z,60.16
2023-05-19T08:57:55.229Z,58.79
2023-05-19T09:00:23.250Z,57.33
2023-05-19T09:03:00.221Z,54.96
2023-05-19T09:05:33.453Z,53.14
2023-05-19T09:08:02.916Z,53.23
2023-05-19T09:10:29.831Z,53.41
2023-05-19T09:12:56.740Z,52.04
2023-05-19T09:15:27.956Z,51.72
2023-05-19T09:18:15.205Z,53.20
2023-05-19T09:20:43.929Z,51.27
2023-05-19T09:23:18.540Z,51.01
2023-05-19T09:25:51.696Z,49.78
2023-05-19T09:28:30.567Z,49.81
2023-05-19T09:31:08.706Z,47.62
2023-05-19T09:33:46.095Z,48.06
2023-05-19T09:36:14.095Z,47.99
2023-05-19T09:38:41.520Z,46.66
2023-05-19T09:41:09.528Z,46.29
2023-05-19T09:43:36.580Z,47.17
2023-05-19T09:46:07.377Z,44.89
2023-05-19T09:48:36.616Z,44.63
2023-05-19T09:51:06.433Z,43.50
2023-05-19T09:53:34.840Z,45.28
2023-05-19T09:56:02.298Z,44.49
2023-05-19T09:58:36.676Z,44.28
2023-05-19T10:01:04.886Z,43.02
2023-05-19T10:03:34.987Z,41.82
2023-05-19T10:06:02.343Z,41.83
2023-05-19T10:08:30.927Z,41.09
2023-05-19T10:10:58.467Z,40.47
2023-05-19T10:13:26.000Z,38.65
2023-05-19T10:15:58.760Z,38.53
2023-05-19T10:18:27.919Z,38.51
2023-05-19T10:20:55.018Z,37.85
2023-05-19T10:23:22.470Z,37.96
2023-05-19T10:25:52.487Z,37.77
2023-05-19T10:28:25.415Z,37.89
2023-05-19T10:30:57.044Z,37.35
2023-05-19T10:33:38.708Z,36.94
2023-05-19T10:36:46.343Z,37.36
2023-05-19T10:39:35.719Z,36.36
2023-05-19T10:42:16.777Z,37.00
2023-05-19T10:45:18.032Z,37.59
2023-05-19T10:47:45.546Z,38.24
2023-05-19T10:50:12.638Z,37.99
2023-05-19T10:52:40.708Z,37.96
2023-05-19T10:55:10.206Z,39.28
2023-05-19T10:57:37.215Z,38.53
2023-05-19T11:00:25.646Z,38.64
2023-05-19T11:02:56.313Z,38.72
2023-05-19T11:05:29.906Z,39.01
2023-05-19T11:08:05.288Z,39.15
2023-05-19T11:10:32.583Z,39.00
2023-05-19T11:12:59.539Z,37.95
2023-05-19T11:15:27.821Z,38.47
2023-05-19T11:17:55.214Z,37.87
2023-05-19T11:20:27.237Z,37.13
2023-05-19T11:23:09.926Z,37.81
2023-05-19T11:25:45.178Z,37.58
2023-05-19T11:28:13.624Z,36.95
2023-05-19T11:30:42.893Z,37.97
2023-05-19T11:33:11.714Z,38.09
2023-05-19T11:35:38.943Z,37.33
2023-05-19T11:38:07.274Z,37.32
2023-05-19T11:40:34.099Z,37.56
2023-05-19T11:43:01.947Z,37.67
2023-05-19T11:45:34.893Z,36.62
2023-05-19T11:48:05.506Z,36.98
2023-05-19T11:50:33.378Z,36.31
2023-05-19T11:53:03.643Z,36.26
2023-05-19T11:55:30.866Z,36.17
2023-05-19T12:00:30.536Z,35.79
2023-05-19T12:02:58.076Z,35.89
2023-05-19T12:05:27.222Z,36.84
2023-05-19T12:07:54.472Z,36.32
2023-05-19T12:10:29.132Z,36.09
2023-05-19T12:12:57.323Z,36.69
2023-05-19T12:15:25.222Z,36.48
2023-05-19T12:18:00.347Z,35.52
2023-05-19T12:20:28.997Z,34.65
2023-05-19T12:22:56.527Z,34.09
2023-05-19T12:25:24.369Z,34.95
2023-05-19T12:27:56.181Z,34.38
2023-05-19T12:30:31.973Z,34.05
2023-05-19T12:32:59.674Z,34.11
2023-05-19T12:35:36.107Z,34.09
2023-05-19T12:38:12.267Z,33.29
2023-05-19T12:40:42.432Z,33.01
2023-05-19T12:43:19.230Z,32.68
2023-05-19T12:45:46.048Z,32.41
2023-05-19T12:48:13.961Z,32.05
2023-05-19T12:50:40.872Z,32.52
2023-05-19T12:53:14.968Z,32.08
2023-05-19T12:55:43.028Z,32.19
2023-05-19T12:58:11.548Z,31.56
2023-05-19T13:00:43.514Z,30.87
2023-05-19T13:03:20.910Z,31.28
2023-05-19T13:05:50.729Z,31.70
2023-05-19T13:08:20.321Z,31.85
2023-05-19T13:10:49.453Z,31.59
2023-05-19T13:13:17.253Z,32.40
2023-05-19T13:15:49.085Z,32.17
2023-05-19T13:18:16.354Z,31.67
2023-05-19T13:20:45.483Z,31.89
2023-05-19T13:23:16.526Z,31.76
2023-05-19T13:25:44.264Z,32.15
2023-05-19T13:28:11.536Z,32.64
2023-05-19T13:30:40.323Z,32.02
2023-05-19T13:33:07.540Z,31.98
2023-05-19T13:35:37.917Z,32.62
2023-05-19T13:38:12.083Z,32.50
2023-05-19T13:40:39.913Z,32.93
2023-05-19T13:43:07.958Z,32.62
2023-05-19T13:45:34.973Z,32.38
2023-05-19T13:48:02.085Z,32.20
2023-05-19T13:50:29.066Z,31.65
2023-05-19T13:52:56.005Z,31.61
2023-05-19T13:55:23.688Z,31.87
2023-05-19T13:57:50.991Z,31.30
2023-05-19T14:00:19.393Z,30.49
2023-05-19T14:02:46.533Z,30.57
2023-05-19T14:05:13.558Z,30.95
2023-05-19T14:07:40.638Z,30.48
2023-05-19T14:10:08.049Z,30.93
2023-05-19T14:12:49.467Z,30.25
2023-05-19T14:15:22.949Z,30.00
2023-05-19T14:17:49.891Z,30.43
2023-05-19T14:20:16.790Z,30.53
2023-05-19T14:22:43.575Z,30.99
2023-05-19T14:25:10.731Z,30.66
2023-05-19T14:27:39.901Z,30.80
2023-05-19T14:30:07.949Z,31.21
2023-05-19T14:32:34.908Z,31.34
2023-05-19T14:35:01.850Z,31.05
2023-05-19T14:37:32.118Z,30.98
2023-05-19T14:39:59.301Z,31.86
2023-05-19T14:42:26.177Z,32.08
2023-05-19T14:44:53.034Z,31.93
2023-05-19T14:47:19.940Z,32.64
2023-05-19T14:49:46.837Z,32.61
2023-05-19T14:52:13.740Z,32.46
2023-05-19T14:54:40.807Z,32.69
2023-05-19T14:57:08.236Z,32.75
2023-05-19T14:59:38.410Z,31.67
2023-05-19T15:02:05.741Z,31.91
2023-05-19T15:04:32.668Z,31.22
2023-05-19T15:07:09.618Z,31.33
2023-05-19T15:09:37.682Z,30.92
2023-05-19T15:12:04.618Z,30.75
2023-05-19T15:14:31.648Z,30.43
2023-05-19T15:16:58.984Z,30.15
2023-05-19T15:19:26.453Z,30.16
2023-05-19T15:21:53.671Z,30.76
2023-05-19T15:24:20.512Z,30.73
2023-05-19T15:26:47.654Z,31.67
2023-05-19T15:29:14.865Z,32.24
2023-05-19T15:31:42.021Z,31.70
2023-05-19T15:34:09.008Z,31.75
2023-05-19T15:36:35.850Z,31.81
2023-05-19T15:39:03.887Z,31.76
2023-05-19T15:41:30.802Z,32.54
2023-05-19T15:44:00.305Z,32.97
2023-05-19T15:46:27.697Z,33.57
2023-05-19T15:48:55.298Z,33.49
2023-05-19T15:51:34.755Z,33.43
2023-05-19T15:54:01.641Z,33.93
2023-05-19T15:56:28.706Z,34.66
2023-05-19T15:58:55.573Z,34.09
2023-05-19T16:01:22.693Z,34.37
2023-05-19T16:03:49.637Z,34.37
2023-05-19T16:06:16.771Z,34.89
2023-05-19T16:08:43.645Z,35.12
2023-05-19T16:11:13.122Z,35.41
2023-05-19T16:13:40.501Z,35.66
2023-05-19T16:16:07.685Z,35.31
2023-05-19T16:18:34.605Z,35.38
2023-05-19T16:21:01.509Z,35.64
2023-05-19T16:23:28.383Z,36.01
2023-05-19T16:25:55.346Z,35.82
2023-05-19T16:28:24.440Z,35.40
2023-05-19T16:30:51.826Z,36.33
2023-05-19T16:33:19.973Z,36.07
2023-05-19T16:35:49.096Z,36.59
2023-05-19T16:38:16.005Z,36.49
2023-05-19T16:40:42.845Z,36.52
2023-05-19T16:43:09.763Z,36.66
2023-05-19T16:45:36.674Z,37.09
2023-05-19T16:48:03.800Z,37.70
2023-05-19T16:50:30.813Z,37.73
2023-05-19T16:52:57.654Z,38.15
2023-05-19T16:55:25.492Z,38.09
2023-05-19T16:57:52.413Z,39.04
2023-05-19T17:00:19.561Z,39.55
2023-05-19T17:02:46.474Z,40.56
2023-05-19T17:05:13.567Z,40.86
2023-05-19T17:07:40.414Z,41.34
2023-05-19T17:10:07.781Z,41.57
2023-05-19T17:12:34.593Z,42.02
2023-05-19T17:15:01.630Z,42.18
2023-05-19T17:17:29.130Z,42.33
2023-05-19T17:19:55.985Z,42.67
2023-05-19T17:22:23.008Z,42.68
2023-05-19T17:24:49.919Z,42.99
2023-05-19T17:27:16.730Z,43.24
2023-05-19T17:29:43.659Z,43.56
2023-05-19T17:32:10.660Z,43.85
2023-05-19T17:34:37.549Z,43.97
2023-05-19T17:37:04.579Z,44.34
2023-05-19T17:39:32.832Z,44.36
2023-05-19T17:41:59.727Z,44.86
2023-05-19T17:44:26.549Z,45.01
2023-05-19T17:46:53.510Z,45.26
2023-05-19T17:49:23.092Z,45.47
2023-05-19T17:51:50.342Z,45.79
2023-05-19T17:54:17.605Z,45.90
2023-05-19T17:56:45.744Z,45.89
2023-05-19T17:59:12.783Z,46.35
2023-05-19T18:01:40.980Z,46.69
2023-05-19T18:04:08.398Z,47.30
2023-05-19T18:06:38.478Z,47.85
2023-05-19T18:09:09.143Z,47.94
2023-05-19T18:11:36.418Z,48.32
2023-05-19T18:14:03.414Z,48.47
2023-05-19T18:16:30.314Z,48.94
2023-05-19T18:18:57.439Z,49.00
2023-05-19T18:21:25.110Z,49.50
2023-05-19T18:23:51.944Z,49.72
2023-05-19T18:26:18.880Z,50.14
2023-05-19T18:28:45.777Z,49.96
2023-05-19T18:31:19.074Z,50.21
2023-05-19T18:33:47.301Z,50.55
2023-05-19T18:36:16.527Z,50.96
2023-05-19T18:38:43.567Z,51.15
2023-05-19T18:41:10.505Z,51.23
2023-05-19T18:43:37.335Z,51.59
2023-05-19T18:46:04.289Z,51.54
2023-05-19T18:48:32.161Z,51.78
2023-05-19T18:50:59.511Z,51.93
2023-05-19T18:53:26.370Z,52.08
2023-05-19T18:55:53.233Z,52.25
2023-05-19T18:58:20.084Z,52.04
2023-05-19T19:00:47.201Z,52.03
2023-05-19T19:03:14.328Z,52.56
2023-05-19T19:05:41.344Z,52.63
2023-05-19T19:08:08.214Z,52.81
2023-05-19T19:10:39.102Z,52.98
2023-05-19T19:13:06.517Z,53.01
2023-05-19T19:15:33.363Z,53.01
2023-05-19T19:18:00.289Z,53.24
2023-05-19T19:20:27.287Z,52.73
2023-05-19T19:22:54.129Z,53.28
2023-05-19T19:25:23.278Z,53.77
2023-05-19T19:27:50.938Z,53.98
2023-05-19T19:30:17.896Z,55.03
2023-05-19T19:32:44.884Z,55.63
2023-05-19T19:35:11.868Z,55.58
2023-05-19T19:37:38.768Z,56.21
2023-05-19T19:40:06.368Z,56.40
2023-05-19T19:42:33.836Z,56.88
2023-05-19T19:45:00.889Z,57.29
2023-05-19T19:47:27.821Z,57.49
2023-05-19T19:49:56.010Z,57.90
2023-05-19T19:52:23.050Z,58.28
2023-05-19T19:54:49.878Z,58.43
2023-05-19T19:57:17.412Z,58.80
2023-05-19T19:59:44.494Z,58.94
2023-05-19T20:02:11.586Z,59.32
2023-05-19T20:04:38.580Z,59.60
2023-05-19T20:07:05.440Z,59.63
2023-05-19T20:09:32.275Z,59.63
2023-05-19T20:11:59.090Z,59.88
2023-05-19T20:14:26.162Z,60.12
2023-05-19T20:16:53.054Z,59.86
2023-05-19T20:19:19.965Z,60.32
2023-05-19T20:21:46.867Z,59.73
2023-05-19T20:24:13.696Z,59.52
2023-05-19T20:26:40.588Z,59.92
2023-05-19T20:29:07.483Z,59.99
2023-05-19T20:31:34.305Z,59.95
2023-05-19T20:34:01.834Z,59.72
2023-05-19T20:36:28.983Z,59.27
2023-05-19T20:38:55.788Z,59.65
2023-05-19T20:41:22.685Z,59.90
2023-05-19T20:43:49.584Z,59.41
2023-05-19T20:46:16.661Z,59.18
2023-05-19T20:48:43.593Z,58.04
2023-05-19T20:51:10.447Z,57.98
2023-05-19T20:53:37.342Z,58.12
2023-05-19T20:56:05.713Z,58.72
2023-05-19T20:58:32.883Z,58.49
2023-05-19T21:00:59.724Z,58.50
2023-05-19T21:03:27.286Z,58.40
2023-05-19T21:05:55.215Z,58.90
2023-05-19T21:08:22.667Z,59.18
2023-05-19T21:10:49.572Z,59.53
2023-05-19T21:13:17.749Z,59.88
2023-05-19T21:15:44.658Z,59.77
2023-05-19T21:18:12.657Z,60.16
2023-05-19T21:20:40.187Z,60.35
2023-05-19T21:23:07.101Z,60.40
2023-05-19T21:25:35.889Z,60.70
2023-05-19T21:28:03.383Z,60.82
2023-05-19T21:30:30.387Z,60.71
2023-05-19T21:32:57.513Z,60.96
2023-05-19T21:35:24.407Z,60.85
2023-05-19T21:37:51.510Z,60.64
2023-05-19T21:40:18.409Z,60.62
2023-05-19T21:42:45.216Z,60.54
2023-05-19T21:45:12.022Z,60.50
2023-05-19T21:47:38.981Z,61.06
2023-05-19T21:50:06.538Z,60.49
2023-05-19T21:52:33.373Z,60.47
2023-05-19T21:55:00.198Z,60.41
2023-05-19T21:57:27.059Z,60.18
2023-05-19T21:59:53.892Z,59.84
2023-05-19T22:02:21.142Z,60.39
2023-05-19T22:04:47.993Z,60.36
2023-05-19T22:07:14.824Z,60.37
2023-05-19T22:09:41.763Z,60.41
2023-05-19T22:12:08.525Z,60.55
2023-05-19T22:14:35.874Z,60.43
2023-05-19T22:17:02.838Z,60.43
2023-05-19T22:19:29.913Z,60.58
2023-05-19T22:22:09.813Z,60.60
2023-05-19T22:24:40.497Z,60.77
2023-05-19T22:27:07.927Z,61.30
2023-05-19T22:29:34.754Z,60.97
2023-05-19T22:32:01.556Z,61.37
2023-05-19T22:34:28.491Z,61.64
2023-05-19T22:36:55.354Z,61.72
2023-05-19T22:39:22.135Z,61.80
2023-05-19T22:41:48.847Z,61.87
2023-05-19T22:44:16.416Z,61.86
2023-05-19T22:46:44.305Z,62.44
2023-05-19T22:49:11.134Z,62.57
2023-05-19T22:51:39.326Z,62.79
2023-05-19T22:54:07.038Z,63.61
2023-05-19T22:56:34.182Z,63.81
2023-05-19T22:59:00.917Z,63.82
2023-05-19T23:01:27.762Z,64.04
2023-05-19T23:03:54.673Z,63.80
2023-05-19T23:06:22.226Z,63.78
2023-05-19T23:08:59.371Z,63.23
2023-05-19T23:11:26.409Z,63.38
2023-05-19T23:13:53.201Z,63.09
2023-05-19T23:16:20.018Z,62.93
2023-05-19T23:18:46.842Z,62.16
2023-05-19T23:21:13.633Z,62.69
2023-05-19T23:23:40.459Z,62.39
2023-05-19T23:26:07.215Z,61.40
2023-05-19T23:28:34.056Z,61.54
2023-05-19T23:31:00.878Z,60.80
2023-05-19T23:33:27.670Z,60.63
2023-05-19T23:35:54.600Z,59.95
2023-05-19T23:38:21.432Z,59.62
2023-05-19T23:40:48.261Z,59.73
2023-05-19T23:43:15.160Z,59.44
2023-05-19T23:45:41.923Z,59.79
2023-05-19T23:48:08.768Z,59.47
2023-05-19T23:50:35.736Z,59.89
2023-05-19T23:53:02.887Z,60.07
2023-05-19T23:55:29.767Z,59.70
2023-05-19T23:57:56.506Z,59.82
